TRA5367 EHRD-LGIR
Flight info
| Callsign | TRA5367 |
|---|---|
| Flight time | 3h 8m |
| Altitude | 37000 |
| Route | LUNIX Z739 MISGO DCT DOJOH DCT DODEN DCT NEGIX DCT DINKU DCT BESNI DCT LATLO DCT OBEDI DCT KFT DCT OLEZE DCT TEBLI/N0440F390 DCT BOSNA DCT MAVAR DCT BITLA DCT KEA UL607 GIVIS T514 XAVIS XAVIS1A |
| Aircraft | B738/M-SDE2E3FGHIJ1RWXYZ/LB1 |
Departure
| Time | 2026-04-29 14:14 |
|---|---|
| Airport | Rotterdam The Hague Airport (EHRD) |
Arrival
| Time | 2026-04-29 17:22 |
|---|---|
| Airport | Heraklion International Nikos Kazantzakis Airport (LGIR) |
| Time | Latitude | Longitude | Altitude | Speed | Heading |
|---|---|---|---|---|---|
| 2026-04-29 13:50 | 51.95092 | 4.43427 | 0 ft | 0 kts | 327° |
| 2026-04-29 14:09 | 51.95093 | 4.43425 | 0 ft | 2 kts | 327° |
| 2026-04-29 14:09 | 51.95140 | 4.43433 | 1 ft | 11 kts | 45° |
| 2026-04-29 14:09 | 51.95198 | 4.43482 | 0 ft | 11 kts | 333° |
| 2026-04-29 14:10 | 51.95240 | 4.43397 | 0 ft | 10 kts | 258° |
| 2026-04-29 14:10 | 51.95202 | 4.43298 | 0 ft | 10 kts | 237° |
| 2026-04-29 14:10 | 51.95164 | 4.43203 | 1 ft | 10 kts | 239° |
| 2026-04-29 14:10 | 51.95133 | 4.43104 | 1 ft | 10 kts | 244° |
| 2026-04-29 14:11 | 51.95110 | 4.43024 | 0 ft | 5 kts | 249° |
| 2026-04-29 14:11 | 51.95108 | 4.43011 | 0 ft | 0 kts | 258° |
| 2026-04-29 14:12 | 51.95107 | 4.42990 | 1 ft | 5 kts | 273° |
| 2026-04-29 14:12 | 51.95135 | 4.42925 | 0 ft | 8 kts | 327° |
| 2026-04-29 14:12 | 51.95180 | 4.42877 | 2 ft | 7 kts | 326° |
| 2026-04-29 14:12 | 51.95209 | 4.42853 | 1 ft | 4 kts | 352° |
| 2026-04-29 14:13 | 51.95232 | 4.42883 | 2 ft | 4 kts | 57° |
| 2026-04-29 14:13 | 51.95264 | 4.42962 | 1 ft | 24 kts | 57° |
| 2026-04-29 14:13 | 51.95505 | 4.43567 | -2 ft | 102 kts | 57° |
| 2026-04-29 14:13 | 51.96010 | 4.44834 | 74 ft | 156 kts | 59° |
| 2026-04-29 14:14 | 51.96579 | 4.46316 | 953 ft | 152 kts | 61° |
| 2026-04-29 14:14 | 51.97128 | 4.47825 | 1684 ft | 165 kts | 61° |
| 2026-04-29 14:14 | 51.97755 | 4.49529 | 2280 ft | 184 kts | 61° |
| 2026-04-29 14:14 | 51.98440 | 4.51375 | 2800 ft | 199 kts | 62° |
| 2026-04-29 14:15 | 51.99173 | 4.53427 | 3179 ft | 223 kts | 62° |
| 2026-04-29 14:15 | 51.99997 | 4.55709 | 3737 ft | 240 kts | 60° |
| 2026-04-29 14:15 | 52.00873 | 4.58044 | 4610 ft | 244 kts | 60° |
| 2026-04-29 14:15 | 52.01721 | 4.60420 | 5560 ft | 244 kts | 63° |
| 2026-04-29 14:16 | 52.02553 | 4.62850 | 6422 ft | 248 kts | 63° |
| 2026-04-29 14:16 | 52.03399 | 4.65319 | 7292 ft | 253 kts | 63° |
| 2026-04-29 14:16 | 52.04262 | 4.67816 | 8157 ft | 255 kts | 62° |
| 2026-04-29 14:16 | 52.05142 | 4.70353 | 8930 ft | 260 kts | 62° |
| 2026-04-29 14:17 | 52.06043 | 4.72934 | 9736 ft | 264 kts | 62° |
| 2026-04-29 14:17 | 52.06773 | 4.75621 | 10497 ft | 268 kts | 81° |
| 2026-04-29 14:17 | 52.06644 | 4.78654 | 11244 ft | 274 kts | 100° |
| 2026-04-29 14:17 | 52.06191 | 4.81688 | 11972 ft | 279 kts | 102° |
| 2026-04-29 14:18 | 52.05690 | 4.84758 | 12699 ft | 283 kts | 102° |
| 2026-04-29 14:18 | 52.05173 | 4.87878 | 13396 ft | 288 kts | 102° |
| 2026-04-29 14:18 | 52.04648 | 4.91042 | 14119 ft | 292 kts | 102° |
| 2026-04-29 14:18 | 52.04081 | 4.94224 | 14849 ft | 296 kts | 108° |
| 2026-04-29 14:19 | 52.03227 | 4.97302 | 15523 ft | 302 kts | 113° |
| 2026-04-29 14:19 | 52.02246 | 5.00353 | 16177 ft | 307 kts | 115° |
| 2026-04-29 14:19 | 52.01227 | 5.03425 | 16818 ft | 312 kts | 114° |
| 2026-04-29 14:19 | 52.00170 | 5.06630 | 16999 ft | 333 kts | 114° |
| 2026-04-29 14:20 | 51.99066 | 5.10007 | 17414 ft | 343 kts | 114° |
| 2026-04-29 14:20 | 51.97940 | 5.13461 | 17966 ft | 349 kts | 114° |
| 2026-04-29 14:20 | 51.96808 | 5.16962 | 18598 ft | 352 kts | 114° |
| 2026-04-29 14:20 | 51.95671 | 5.20492 | 19250 ft | 354 kts | 114° |
| 2026-04-29 14:21 | 51.94531 | 5.24041 | 19892 ft | 356 kts | 114° |
| 2026-04-29 14:21 | 51.93384 | 5.27620 | 20479 ft | 360 kts | 114° |
| 2026-04-29 14:21 | 51.92230 | 5.31222 | 21093 ft | 362 kts | 114° |
| 2026-04-29 14:21 | 51.91066 | 5.34847 | 21682 ft | 364 kts | 114° |
| 2026-04-29 14:22 | 51.89892 | 5.38497 | 22244 ft | 366 kts | 114° |
| 2026-04-29 14:22 | 51.88712 | 5.42166 | 22783 ft | 369 kts | 113° |
| 2026-04-29 14:22 | 51.87519 | 5.45865 | 23315 ft | 372 kts | 113° |
| 2026-04-29 14:22 | 51.86320 | 5.49580 | 23845 ft | 374 kts | 113° |
| 2026-04-29 14:23 | 51.85112 | 5.53318 | 24351 ft | 376 kts | 113° |
| 2026-04-29 14:23 | 51.83897 | 5.57073 | 24842 ft | 378 kts | 113° |
| 2026-04-29 14:23 | 51.82675 | 5.60845 | 25359 ft | 379 kts | 113° |
| 2026-04-29 14:23 | 51.81447 | 5.64623 | 25835 ft | 380 kts | 113° |
| 2026-04-29 14:24 | 51.80213 | 5.68417 | 26290 ft | 382 kts | 113° |
| 2026-04-29 14:24 | 51.78974 | 5.72225 | 26728 ft | 384 kts | 112° |
| 2026-04-29 14:24 | 51.77730 | 5.76045 | 27176 ft | 385 kts | 112° |
| 2026-04-29 14:24 | 51.76481 | 5.79871 | 27623 ft | 386 kts | 112° |
| 2026-04-29 14:25 | 51.75225 | 5.83710 | 28047 ft | 387 kts | 112° |
| 2026-04-29 14:25 | 51.73964 | 5.87559 | 28453 ft | 389 kts | 112° |
| 2026-04-29 14:25 | 51.72697 | 5.91418 | 28838 ft | 390 kts | 112° |
| 2026-04-29 14:25 | 51.71424 | 5.95295 | 29219 ft | 392 kts | 112° |
| 2026-04-29 14:26 | 51.70145 | 5.99181 | 29603 ft | 393 kts | 112° |
| 2026-04-29 14:26 | 51.68861 | 6.03076 | 29955 ft | 394 kts | 112° |
| 2026-04-29 14:26 | 51.67571 | 6.06979 | 30319 ft | 395 kts | 112° |
| 2026-04-29 14:26 | 51.66276 | 6.10897 | 30641 ft | 397 kts | 112° |
| 2026-04-29 14:27 | 51.64976 | 6.14825 | 30927 ft | 399 kts | 112° |
| 2026-04-29 14:27 | 51.63665 | 6.18778 | 31212 ft | 401 kts | 112° |
| 2026-04-29 14:27 | 51.62346 | 6.22748 | 31488 ft | 403 kts | 112° |
| 2026-04-29 14:28 | 51.59703 | 6.30683 | 32006 ft | 407 kts | 112° |
| 2026-04-29 14:28 | 51.58344 | 6.34754 | 32266 ft | 409 kts | 112° |
| 2026-04-29 14:28 | 51.57013 | 6.38731 | 32529 ft | 410 kts | 112° |
| 2026-04-29 14:28 | 51.55660 | 6.42770 | 32762 ft | 412 kts | 112° |
| 2026-04-29 14:29 | 51.54297 | 6.46833 | 32961 ft | 414 kts | 112° |
| 2026-04-29 14:29 | 51.52926 | 6.50914 | 33180 ft | 416 kts | 112° |
| 2026-04-29 14:29 | 51.51545 | 6.55018 | 33368 ft | 419 kts | 112° |
| 2026-04-29 14:29 | 51.50157 | 6.59137 | 33568 ft | 421 kts | 112° |
| 2026-04-29 14:30 | 51.48758 | 6.63279 | 33752 ft | 423 kts | 112° |
| 2026-04-29 14:30 | 51.47354 | 6.67431 | 33961 ft | 424 kts | 112° |
| 2026-04-29 14:30 | 51.45944 | 6.71590 | 34213 ft | 424 kts | 113° |
| 2026-04-29 14:30 | 51.44990 | 6.74403 | 34361 ft | 425 kts | 113° |
| 2026-04-29 14:31 | 51.43574 | 6.78577 | 34517 ft | 427 kts | 113° |
| 2026-04-29 14:31 | 51.42148 | 6.82766 | 34692 ft | 429 kts | 113° |
| 2026-04-29 14:31 | 51.40614 | 6.86886 | 34894 ft | 434 kts | 120° |
| 2026-04-29 14:31 | 51.38683 | 6.90655 | 35053 ft | 443 kts | 129° |
| 2026-04-29 14:32 | 51.36469 | 6.94099 | 35263 ft | 445 kts | 131° |
| 2026-04-29 14:32 | 51.34226 | 6.97510 | 35455 ft | 446 kts | 131° |
| 2026-04-29 14:32 | 51.31973 | 7.00929 | 35647 ft | 447 kts | 131° |
| 2026-04-29 14:32 | 51.29723 | 7.04358 | 35827 ft | 447 kts | 131° |
| 2026-04-29 14:33 | 51.27478 | 7.07797 | 36007 ft | 448 kts | 131° |
| 2026-04-29 14:33 | 51.25228 | 7.11250 | 36162 ft | 449 kts | 131° |
| 2026-04-29 14:33 | 51.22976 | 7.14716 | 36349 ft | 450 kts | 131° |
| 2026-04-29 14:33 | 51.20722 | 7.18189 | 36517 ft | 451 kts | 131° |
| 2026-04-29 14:34 | 51.18463 | 7.21664 | 36700 ft | 451 kts | 131° |
| 2026-04-29 14:34 | 51.16216 | 7.25115 | 37059 ft | 446 kts | 132° |
| 2026-04-29 14:34 | 51.13990 | 7.28529 | 37299 ft | 445 kts | 132° |
| 2026-04-29 14:35 | 51.09494 | 7.35410 | 37298 ft | 452 kts | 132° |
| 2026-04-29 14:35 | 51.04931 | 7.42371 | 37300 ft | 456 kts | 132° |
| 2026-04-29 14:36 | 51.00329 | 7.49369 | 37300 ft | 459 kts | 133° |
| 2026-04-29 14:36 | 50.95696 | 7.56396 | 37302 ft | 462 kts | 133° |
| 2026-04-29 14:37 | 50.91048 | 7.63429 | 37289 ft | 461 kts | 133° |
| 2026-04-29 14:37 | 50.86478 | 7.70315 | 37289 ft | 453 kts | 133° |
| 2026-04-29 14:38 | 50.81910 | 7.77177 | 37295 ft | 453 kts | 134° |
| 2026-04-29 14:38 | 50.77323 | 7.83997 | 37301 ft | 453 kts | 134° |
| 2026-04-29 14:39 | 50.72720 | 7.90813 | 37293 ft | 454 kts | 134° |
| 2026-04-29 14:39 | 50.68106 | 7.97637 | 37300 ft | 455 kts | 134° |
| 2026-04-29 14:40 | 50.63488 | 8.04461 | 37286 ft | 456 kts | 134° |
| 2026-04-29 14:40 | 50.58957 | 8.11449 | 37288 ft | 455 kts | 128° |
| 2026-04-29 14:41 | 50.55010 | 8.19248 | 37298 ft | 457 kts | 125° |
| 2026-04-29 14:41 | 50.51098 | 8.27170 | 37305 ft | 460 kts | 126° |
| 2026-04-29 14:42 | 50.47102 | 8.35062 | 37292 ft | 463 kts | 126° |
| 2026-04-29 14:42 | 50.43063 | 8.42948 | 37300 ft | 464 kts | 126° |
| 2026-04-29 14:43 | 50.39010 | 8.50842 | 37288 ft | 465 kts | 126° |
| 2026-04-29 14:43 | 50.34786 | 8.58513 | 37288 ft | 465 kts | 130° |
| 2026-04-29 14:44 | 50.30337 | 8.65877 | 37277 ft | 465 kts | 131° |
| 2026-04-29 14:44 | 50.25913 | 8.73139 | 37274 ft | 463 kts | 131° |
| 2026-04-29 14:45 | 50.21495 | 8.80448 | 37273 ft | 462 kts | 131° |
| 2026-04-29 14:45 | 50.17102 | 8.87740 | 37274 ft | 460 kts | 131° |
| 2026-04-29 14:46 | 50.12717 | 8.95007 | 37264 ft | 459 kts | 131° |
| 2026-04-29 14:46 | 50.08338 | 9.02243 | 37264 ft | 459 kts | 131° |
| 2026-04-29 14:47 | 50.03961 | 9.09451 | 37271 ft | 458 kts | 131° |
| 2026-04-29 14:47 | 49.99576 | 9.16653 | 37264 ft | 458 kts | 131° |
| 2026-04-29 14:48 | 49.95185 | 9.23848 | 37264 ft | 460 kts | 132° |
| 2026-04-29 14:48 | 49.90763 | 9.31069 | 37266 ft | 463 kts | 132° |
| 2026-04-29 14:49 | 49.86306 | 9.38324 | 37264 ft | 466 kts | 132° |
| 2026-04-29 14:49 | 49.81818 | 9.45610 | 37267 ft | 469 kts | 133° |
| 2026-04-29 14:50 | 49.77295 | 9.52940 | 37265 ft | 472 kts | 133° |
| 2026-04-29 14:50 | 49.72739 | 9.60292 | 37256 ft | 474 kts | 133° |
| 2026-04-29 14:51 | 49.68171 | 9.67642 | 37247 ft | 474 kts | 133° |
| 2026-04-29 14:51 | 49.63601 | 9.74977 | 37240 ft | 474 kts | 133° |
| 2026-04-29 14:52 | 49.59039 | 9.82278 | 37234 ft | 472 kts | 133° |
| 2026-04-29 14:52 | 49.54492 | 9.89532 | 37230 ft | 469 kts | 133° |
| 2026-04-29 14:53 | 49.49966 | 9.96736 | 37237 ft | 467 kts | 133° |
| 2026-04-29 14:53 | 49.45453 | 10.03898 | 37232 ft | 466 kts | 133° |
| 2026-04-29 14:54 | 49.40945 | 10.11031 | 37239 ft | 465 kts | 133° |
| 2026-04-29 14:54 | 49.36466 | 10.18098 | 37239 ft | 465 kts | 133° |
| 2026-04-29 14:55 | 49.31954 | 10.25199 | 37254 ft | 466 kts | 134° |
| 2026-04-29 14:55 | 49.27419 | 10.32319 | 37247 ft | 468 kts | 134° |
| 2026-04-29 14:56 | 49.22851 | 10.39459 | 37249 ft | 471 kts | 135° |
| 2026-04-29 14:56 | 49.18165 | 10.46488 | 37250 ft | 473 kts | 136° |
| 2026-04-29 14:57 | 49.13414 | 10.53489 | 37249 ft | 476 kts | 136° |
| 2026-04-29 14:57 | 49.08648 | 10.60522 | 37250 ft | 477 kts | 136° |
| 2026-04-29 14:58 | 49.03870 | 10.67584 | 37254 ft | 479 kts | 136° |
| 2026-04-29 14:58 | 48.99072 | 10.74657 | 37247 ft | 480 kts | 136° |
| 2026-04-29 14:59 | 48.94265 | 10.81724 | 37236 ft | 481 kts | 136° |
| 2026-04-29 14:59 | 48.89455 | 10.88777 | 37235 ft | 480 kts | 137° |
| 2026-04-29 15:00 | 48.84643 | 10.95813 | 37220 ft | 480 kts | 137° |
| 2026-04-29 15:00 | 48.79834 | 11.02823 | 37220 ft | 479 kts | 137° |
| 2026-04-29 15:01 | 48.75064 | 11.09758 | 37212 ft | 478 kts | 137° |
| 2026-04-29 15:01 | 48.70269 | 11.16713 | 37208 ft | 477 kts | 137° |
| 2026-04-29 15:02 | 48.65472 | 11.23650 | 37214 ft | 476 kts | 137° |
| 2026-04-29 15:02 | 48.60863 | 11.30850 | 37212 ft | 477 kts | 133° |
| 2026-04-29 15:03 | 48.56434 | 11.38303 | 37219 ft | 477 kts | 133° |
| 2026-04-29 15:03 | 48.52004 | 11.45759 | 37221 ft | 477 kts | 133° |
| 2026-04-29 15:04 | 48.47542 | 11.53174 | 37228 ft | 478 kts | 134° |
| 2026-04-29 15:04 | 48.43052 | 11.60582 | 37218 ft | 479 kts | 134° |
| 2026-04-29 15:05 | 48.38540 | 11.67992 | 37220 ft | 481 kts | 134° |
| 2026-04-29 15:05 | 48.34009 | 11.75417 | 37215 ft | 482 kts | 134° |
| 2026-04-29 15:06 | 48.29467 | 11.82841 | 37213 ft | 483 kts | 135° |
| 2026-04-29 15:06 | 48.24910 | 11.90271 | 37216 ft | 484 kts | 135° |
| 2026-04-29 15:07 | 48.20337 | 11.97703 | 37212 ft | 486 kts | 135° |
| 2026-04-29 15:07 | 48.15746 | 12.05144 | 37212 ft | 486 kts | 135° |
| 2026-04-29 15:08 | 48.11148 | 12.12578 | 37209 ft | 487 kts | 135° |
| 2026-04-29 15:08 | 48.06542 | 12.20004 | 37213 ft | 487 kts | 135° |
| 2026-04-29 15:09 | 48.01931 | 12.27417 | 37204 ft | 487 kts | 135° |
| 2026-04-29 15:09 | 47.97342 | 12.34771 | 37202 ft | 487 kts | 135° |
| 2026-04-29 15:10 | 47.92694 | 12.42200 | 37203 ft | 486 kts | 135° |
| 2026-04-29 15:10 | 47.88115 | 12.49500 | 37209 ft | 485 kts | 135° |
| 2026-04-29 15:11 | 47.83506 | 12.56825 | 37214 ft | 484 kts | 135° |
| 2026-04-29 15:11 | 47.78902 | 12.64123 | 37213 ft | 483 kts | 135° |
| 2026-04-29 15:12 | 47.74296 | 12.71406 | 37205 ft | 484 kts | 135° |
| 2026-04-29 15:12 | 47.69684 | 12.78678 | 37214 ft | 484 kts | 135° |
| 2026-04-29 15:13 | 47.65013 | 12.85869 | 37214 ft | 484 kts | 137° |
| 2026-04-29 15:13 | 47.60223 | 12.92875 | 37217 ft | 483 kts | 137° |
| 2026-04-29 15:14 | 47.55428 | 12.99877 | 37205 ft | 484 kts | 137° |
| 2026-04-29 15:14 | 47.50637 | 13.06907 | 37210 ft | 486 kts | 137° |
| 2026-04-29 15:15 | 47.45843 | 13.13948 | 37216 ft | 486 kts | 137° |
| 2026-04-29 15:15 | 47.41032 | 13.20991 | 37207 ft | 487 kts | 137° |
| 2026-04-29 15:16 | 47.36212 | 13.28030 | 37211 ft | 488 kts | 137° |
| 2026-04-29 15:16 | 47.31449 | 13.35181 | 37217 ft | 490 kts | 133° |
| 2026-04-29 15:17 | 47.27040 | 13.42847 | 37214 ft | 491 kts | 131° |
| 2026-04-29 15:17 | 47.23416 | 13.49280 | 37209 ft | 491 kts | 131° |
| 2026-04-29 15:18 | 47.19029 | 13.56987 | 37204 ft | 492 kts | 131° |
| 2026-04-29 15:18 | 47.14613 | 13.64657 | 37198 ft | 491 kts | 132° |
| 2026-04-29 15:19 | 47.10197 | 13.72288 | 37205 ft | 490 kts | 132° |
| 2026-04-29 15:19 | 47.05774 | 13.79905 | 37197 ft | 490 kts | 132° |
| 2026-04-29 15:20 | 47.01349 | 13.87509 | 37200 ft | 490 kts | 132° |
| 2026-04-29 15:20 | 46.96925 | 13.95093 | 37211 ft | 490 kts | 132° |
| 2026-04-29 15:21 | 46.92499 | 14.02658 | 37369 ft | 494 kts | 132° |
| 2026-04-29 15:21 | 46.90233 | 14.06523 | 37513 ft | 494 kts | 132° |
| 2026-04-29 15:21 | 46.87992 | 14.10338 | 37675 ft | 494 kts | 132° |
| 2026-04-29 15:21 | 46.85754 | 14.14145 | 37858 ft | 494 kts | 132° |
| 2026-04-29 15:22 | 46.83546 | 14.17898 | 38086 ft | 493 kts | 132° |
| 2026-04-29 15:22 | 46.81311 | 14.21690 | 38250 ft | 493 kts | 132° |
| 2026-04-29 15:22 | 46.79070 | 14.25487 | 38369 ft | 494 kts | 133° |
| 2026-04-29 15:22 | 46.76825 | 14.29285 | 38562 ft | 493 kts | 133° |
| 2026-04-29 15:23 | 46.74596 | 14.33051 | 38871 ft | 489 kts | 132° |
| 2026-04-29 15:23 | 46.72384 | 14.36784 | 39157 ft | 485 kts | 132° |
| 2026-04-29 15:23 | 46.70177 | 14.40504 | 39208 ft | 487 kts | 132° |
| 2026-04-29 15:24 | 46.65714 | 14.48005 | 39216 ft | 492 kts | 133° |
| 2026-04-29 15:24 | 46.61192 | 14.55550 | 39223 ft | 496 kts | 134° |
| 2026-04-29 15:25 | 46.56422 | 14.62847 | 39221 ft | 500 kts | 136° |
| 2026-04-29 15:25 | 46.51564 | 14.70074 | 39217 ft | 499 kts | 136° |
| 2026-04-29 15:26 | 46.46777 | 14.77252 | 39201 ft | 491 kts | 136° |
| 2026-04-29 15:26 | 46.42059 | 14.84370 | 39215 ft | 489 kts | 136° |
| 2026-04-29 15:27 | 46.37350 | 14.91465 | 39224 ft | 488 kts | 136° |
| 2026-04-29 15:27 | 46.32641 | 14.98540 | 39227 ft | 488 kts | 136° |
| 2026-04-29 15:28 | 46.27921 | 15.05611 | 39227 ft | 489 kts | 136° |
| 2026-04-29 15:28 | 46.23184 | 15.12688 | 39233 ft | 491 kts | 136° |
| 2026-04-29 15:29 | 46.18426 | 15.19776 | 39234 ft | 493 kts | 136° |
| 2026-04-29 15:30 | 46.08835 | 15.34045 | 39228 ft | 498 kts | 135° |
| 2026-04-29 15:30 | 46.04095 | 15.41338 | 39235 ft | 500 kts | 135° |
| 2026-04-29 15:31 | 45.99356 | 15.48677 | 39229 ft | 501 kts | 135° |
| 2026-04-29 15:31 | 45.94592 | 15.56007 | 39239 ft | 502 kts | 135° |
| 2026-04-29 15:32 | 45.89816 | 15.63314 | 39240 ft | 502 kts | 135° |
| 2026-04-29 15:32 | 45.85034 | 15.70605 | 39236 ft | 501 kts | 135° |
| 2026-04-29 15:33 | 45.80284 | 15.77828 | 39237 ft | 501 kts | 135° |
| 2026-04-29 15:33 | 45.75504 | 15.85077 | 39241 ft | 500 kts | 135° |
| 2026-04-29 15:34 | 45.70730 | 15.92302 | 39237 ft | 499 kts | 135° |
| 2026-04-29 15:34 | 45.65955 | 15.99507 | 39239 ft | 498 kts | 135° |
| 2026-04-29 15:35 | 45.61183 | 16.06686 | 39240 ft | 498 kts | 136° |
| 2026-04-29 15:35 | 45.56384 | 16.13889 | 39242 ft | 497 kts | 136° |
| 2026-04-29 15:36 | 45.51647 | 16.20981 | 39234 ft | 497 kts | 136° |
| 2026-04-29 15:36 | 45.46873 | 16.28110 | 39233 ft | 497 kts | 136° |
| 2026-04-29 15:37 | 45.42097 | 16.35218 | 39230 ft | 497 kts | 136° |
| 2026-04-29 15:37 | 45.37320 | 16.42314 | 39221 ft | 497 kts | 136° |
| 2026-04-29 15:38 | 45.32538 | 16.49401 | 39215 ft | 497 kts | 136° |
| 2026-04-29 15:38 | 45.27751 | 16.56475 | 39215 ft | 496 kts | 136° |
| 2026-04-29 15:39 | 45.22961 | 16.63537 | 39201 ft | 496 kts | 136° |
| 2026-04-29 15:39 | 45.18141 | 16.70539 | 39194 ft | 495 kts | 139° |
| 2026-04-29 15:40 | 45.13118 | 16.77204 | 39185 ft | 494 kts | 140° |
| 2026-04-29 15:40 | 45.08049 | 16.83780 | 39197 ft | 494 kts | 140° |
| 2026-04-29 15:41 | 45.03002 | 16.90387 | 39182 ft | 494 kts | 140° |
| 2026-04-29 15:41 | 44.97975 | 16.97008 | 39182 ft | 494 kts | 140° |
| 2026-04-29 15:42 | 44.92955 | 17.03617 | 39209 ft | 493 kts | 140° |
| 2026-04-29 15:42 | 44.87936 | 17.10208 | 39214 ft | 493 kts | 140° |
| 2026-04-29 15:43 | 44.82913 | 17.16781 | 39210 ft | 493 kts | 140° |
| 2026-04-29 15:43 | 44.77883 | 17.23349 | 39212 ft | 493 kts | 140° |
| 2026-04-29 15:44 | 44.72848 | 17.29903 | 39218 ft | 493 kts | 140° |
| 2026-04-29 15:44 | 44.67804 | 17.36454 | 39206 ft | 494 kts | 140° |
| 2026-04-29 15:45 | 44.62750 | 17.43004 | 39205 ft | 495 kts | 140° |
| 2026-04-29 15:45 | 44.57688 | 17.49547 | 39196 ft | 495 kts | 141° |
| 2026-04-29 15:46 | 44.52615 | 17.56084 | 39198 ft | 495 kts | 141° |
| 2026-04-29 15:46 | 44.47579 | 17.62565 | 39182 ft | 495 kts | 141° |
| 2026-04-29 15:47 | 44.42470 | 17.69124 | 39173 ft | 495 kts | 141° |
| 2026-04-29 15:47 | 44.37430 | 17.75576 | 39175 ft | 494 kts | 141° |
| 2026-04-29 15:48 | 44.32139 | 17.81674 | 39157 ft | 492 kts | 146° |
| 2026-04-29 15:48 | 44.26697 | 17.87422 | 39160 ft | 490 kts | 147° |
| 2026-04-29 15:49 | 44.21263 | 17.93155 | 39161 ft | 490 kts | 147° |
| 2026-04-29 15:49 | 44.15816 | 17.98980 | 39147 ft | 491 kts | 146° |
| 2026-04-29 15:50 | 44.10442 | 18.04752 | 39132 ft | 491 kts | 146° |
| 2026-04-29 15:50 | 44.05029 | 18.10558 | 39132 ft | 492 kts | 146° |
| 2026-04-29 15:51 | 43.99608 | 18.16356 | 39133 ft | 492 kts | 146° |
| 2026-04-29 15:51 | 43.94183 | 18.22144 | 39136 ft | 492 kts | 147° |
| 2026-04-29 15:52 | 43.88756 | 18.27919 | 39131 ft | 492 kts | 147° |
| 2026-04-29 15:52 | 43.83319 | 18.33694 | 39140 ft | 492 kts | 147° |
| 2026-04-29 15:53 | 43.77879 | 18.39456 | 39126 ft | 493 kts | 147° |
| 2026-04-29 15:53 | 43.72429 | 18.45214 | 39137 ft | 493 kts | 147° |
| 2026-04-29 15:54 | 43.66968 | 18.50970 | 39123 ft | 494 kts | 147° |
| 2026-04-29 15:54 | 43.61506 | 18.56714 | 39115 ft | 493 kts | 147° |
| 2026-04-29 15:55 | 43.56049 | 18.62440 | 39109 ft | 493 kts | 147° |
| 2026-04-29 15:55 | 43.50597 | 18.68149 | 39111 ft | 492 kts | 147° |
| 2026-04-29 15:56 | 43.45153 | 18.73835 | 39085 ft | 491 kts | 147° |
| 2026-04-29 15:56 | 43.39724 | 18.79494 | 39105 ft | 489 kts | 147° |
| 2026-04-29 15:57 | 43.34292 | 18.85139 | 39082 ft | 490 kts | 147° |
| 2026-04-29 15:57 | 43.28858 | 18.90773 | 39081 ft | 490 kts | 147° |
| 2026-04-29 15:58 | 43.23425 | 18.96395 | 39081 ft | 489 kts | 147° |
| 2026-04-29 15:58 | 43.18002 | 19.01995 | 39100 ft | 487 kts | 147° |
| 2026-04-29 15:59 | 43.12579 | 19.07582 | 39071 ft | 488 kts | 147° |
| 2026-04-29 15:59 | 43.07165 | 19.13147 | 39081 ft | 486 kts | 147° |
| 2026-04-29 16:00 | 43.01749 | 19.18702 | 39074 ft | 487 kts | 147° |
| 2026-04-29 16:00 | 42.96319 | 19.24256 | 39069 ft | 488 kts | 147° |
| 2026-04-29 16:01 | 42.90873 | 19.29813 | 39060 ft | 489 kts | 147° |
| 2026-04-29 16:01 | 42.85416 | 19.35372 | 39060 ft | 490 kts | 147° |
| 2026-04-29 16:02 | 42.79951 | 19.40926 | 39047 ft | 491 kts | 147° |
| 2026-04-29 16:02 | 42.74516 | 19.46438 | 39044 ft | 490 kts | 146° |
| 2026-04-29 16:03 | 42.69048 | 19.51970 | 39035 ft | 490 kts | 147° |
| 2026-04-29 16:03 | 42.63589 | 19.57478 | 39040 ft | 488 kts | 147° |
| 2026-04-29 16:04 | 42.59023 | 19.62079 | 39021 ft | 487 kts | 146° |
| 2026-04-29 16:04 | 42.53592 | 19.67540 | 39019 ft | 485 kts | 146° |
| 2026-04-29 16:05 | 42.48172 | 19.72976 | 39028 ft | 484 kts | 146° |
| 2026-04-29 16:05 | 42.42793 | 19.78360 | 39027 ft | 483 kts | 146° |
| 2026-04-29 16:06 | 42.37347 | 19.83798 | 39030 ft | 483 kts | 146° |
| 2026-04-29 16:06 | 42.31986 | 19.89142 | 39012 ft | 481 kts | 146° |
| 2026-04-29 16:07 | 42.26602 | 19.94493 | 39034 ft | 480 kts | 146° |
| 2026-04-29 16:07 | 42.21223 | 19.99832 | 39037 ft | 480 kts | 146° |
| 2026-04-29 16:08 | 42.15836 | 20.05164 | 39040 ft | 481 kts | 146° |
| 2026-04-29 16:08 | 42.10437 | 20.10497 | 39039 ft | 481 kts | 147° |
| 2026-04-29 16:09 | 42.05027 | 20.15829 | 39037 ft | 482 kts | 147° |
| 2026-04-29 16:09 | 41.99617 | 20.21151 | 39045 ft | 482 kts | 147° |
| 2026-04-29 16:10 | 41.94189 | 20.26478 | 39048 ft | 483 kts | 147° |
| 2026-04-29 16:10 | 41.88755 | 20.31800 | 39044 ft | 483 kts | 147° |
| 2026-04-29 16:11 | 41.83319 | 20.37113 | 39049 ft | 484 kts | 147° |
| 2026-04-29 16:11 | 41.77867 | 20.42428 | 39049 ft | 485 kts | 147° |
| 2026-04-29 16:12 | 41.72410 | 20.47743 | 39049 ft | 485 kts | 147° |
| 2026-04-29 16:12 | 41.66950 | 20.53046 | 39054 ft | 485 kts | 147° |
| 2026-04-29 16:13 | 41.61591 | 20.58553 | 39047 ft | 486 kts | 144° |
| 2026-04-29 16:13 | 41.56330 | 20.64198 | 39037 ft | 484 kts | 144° |
| 2026-04-29 16:14 | 41.51067 | 20.69808 | 39044 ft | 483 kts | 144° |
| 2026-04-29 16:14 | 41.45795 | 20.75371 | 39031 ft | 483 kts | 144° |
| 2026-04-29 16:15 | 41.40527 | 20.80896 | 39039 ft | 481 kts | 144° |
| 2026-04-29 16:15 | 41.35301 | 20.86365 | 39053 ft | 480 kts | 144° |
| 2026-04-29 16:16 | 41.30050 | 20.91853 | 39042 ft | 480 kts | 144° |
| 2026-04-29 16:16 | 41.24792 | 20.97335 | 39047 ft | 480 kts | 145° |
| 2026-04-29 16:17 | 41.19532 | 21.02807 | 39048 ft | 481 kts | 145° |
| 2026-04-29 16:17 | 41.14267 | 21.08276 | 39049 ft | 480 kts | 145° |
| 2026-04-29 16:18 | 41.09001 | 21.13733 | 39035 ft | 480 kts | 145° |
| 2026-04-29 16:18 | 41.03737 | 21.19177 | 39057 ft | 480 kts | 145° |
| 2026-04-29 16:19 | 40.98467 | 21.24616 | 39042 ft | 480 kts | 145° |
| 2026-04-29 16:19 | 40.93196 | 21.30046 | 39040 ft | 480 kts | 145° |
| 2026-04-29 16:20 | 40.87925 | 21.35465 | 39043 ft | 480 kts | 145° |
| 2026-04-29 16:20 | 40.82570 | 21.40695 | 39049 ft | 478 kts | 148° |
| 2026-04-29 16:21 | 40.77122 | 21.45719 | 39046 ft | 478 kts | 148° |
| 2026-04-29 16:21 | 40.71672 | 21.50740 | 39050 ft | 477 kts | 148° |
| 2026-04-29 16:22 | 40.66238 | 21.55792 | 39045 ft | 478 kts | 148° |
| 2026-04-29 16:22 | 40.60810 | 21.60848 | 39048 ft | 478 kts | 148° |
| 2026-04-29 16:23 | 40.55375 | 21.65904 | 39052 ft | 479 kts | 148° |
| 2026-04-29 16:23 | 40.49931 | 21.70956 | 39054 ft | 479 kts | 148° |
| 2026-04-29 16:24 | 40.44489 | 21.75997 | 39049 ft | 479 kts | 148° |
| 2026-04-29 16:24 | 40.39044 | 21.81030 | 39044 ft | 478 kts | 148° |
| 2026-04-29 16:25 | 40.33602 | 21.86049 | 39050 ft | 478 kts | 148° |
| 2026-04-29 16:25 | 40.28160 | 21.91058 | 39043 ft | 478 kts | 148° |
| 2026-04-29 16:26 | 40.22716 | 21.96059 | 39050 ft | 478 kts | 148° |
| 2026-04-29 16:26 | 40.17273 | 22.01051 | 39046 ft | 477 kts | 148° |
| 2026-04-29 16:27 | 40.11836 | 22.06025 | 39043 ft | 477 kts | 148° |
| 2026-04-29 16:27 | 40.06400 | 22.10989 | 39043 ft | 476 kts | 148° |
| 2026-04-29 16:28 | 40.00968 | 22.15941 | 39045 ft | 476 kts | 148° |
| 2026-04-29 16:28 | 39.95540 | 22.20878 | 39046 ft | 475 kts | 148° |
| 2026-04-29 16:29 | 39.90116 | 22.25806 | 39049 ft | 475 kts | 148° |
| 2026-04-29 16:29 | 39.84693 | 22.30716 | 39043 ft | 475 kts | 148° |
| 2026-04-29 16:30 | 39.79271 | 22.35616 | 39045 ft | 475 kts | 148° |
| 2026-04-29 16:30 | 39.73850 | 22.40507 | 39045 ft | 474 kts | 148° |
| 2026-04-29 16:31 | 39.68426 | 22.45394 | 39038 ft | 475 kts | 148° |
| 2026-04-29 16:31 | 39.62997 | 22.50275 | 39037 ft | 475 kts | 148° |
| 2026-04-29 16:32 | 39.57560 | 22.55154 | 39032 ft | 475 kts | 148° |
| 2026-04-29 16:32 | 39.52124 | 22.60019 | 39028 ft | 475 kts | 148° |
| 2026-04-29 16:33 | 39.43959 | 22.67314 | 39028 ft | 476 kts | 148° |
| 2026-04-29 16:33 | 39.38506 | 22.72174 | 39029 ft | 476 kts | 148° |
| 2026-04-29 16:34 | 39.33045 | 22.77032 | 39017 ft | 477 kts | 148° |
| 2026-04-29 16:34 | 39.27578 | 22.81881 | 39020 ft | 477 kts | 148° |
| 2026-04-29 16:35 | 39.22104 | 22.86732 | 39026 ft | 477 kts | 148° |
| 2026-04-29 16:35 | 39.16632 | 22.91570 | 39022 ft | 477 kts | 148° |
| 2026-04-29 16:36 | 39.11159 | 22.96404 | 39030 ft | 477 kts | 148° |
| 2026-04-29 16:36 | 39.05687 | 23.01225 | 39034 ft | 476 kts | 148° |
| 2026-04-29 16:37 | 39.00220 | 23.06034 | 39019 ft | 476 kts | 148° |
| 2026-04-29 16:37 | 38.95673 | 23.10017 | 39038 ft | 476 kts | 149° |
| 2026-04-29 16:38 | 38.89285 | 23.15609 | 39038 ft | 475 kts | 148° |
| 2026-04-29 16:38 | 38.83822 | 23.20396 | 39023 ft | 475 kts | 148° |
| 2026-04-29 16:39 | 38.78360 | 23.25161 | 39035 ft | 475 kts | 148° |
| 2026-04-29 16:39 | 38.72933 | 23.29884 | 39036 ft | 475 kts | 148° |
| 2026-04-29 16:40 | 38.67471 | 23.34630 | 39048 ft | 474 kts | 148° |
| 2026-04-29 16:40 | 38.62013 | 23.39366 | 39045 ft | 474 kts | 148° |
| 2026-04-29 16:41 | 38.56557 | 23.44094 | 39047 ft | 474 kts | 149° |
| 2026-04-29 16:41 | 38.51102 | 23.48810 | 39047 ft | 474 kts | 148° |
| 2026-04-29 16:42 | 38.45641 | 23.53522 | 39049 ft | 474 kts | 149° |
| 2026-04-29 16:42 | 38.40187 | 23.58221 | 39041 ft | 473 kts | 149° |
| 2026-04-29 16:43 | 38.34731 | 23.62910 | 39056 ft | 473 kts | 149° |
| 2026-04-29 16:43 | 38.29274 | 23.67592 | 39056 ft | 473 kts | 149° |
| 2026-04-29 16:44 | 38.23808 | 23.72274 | 39060 ft | 474 kts | 149° |
| 2026-04-29 16:44 | 38.18337 | 23.76950 | 39052 ft | 474 kts | 149° |
| 2026-04-29 16:45 | 38.12854 | 23.81628 | 39056 ft | 475 kts | 149° |
| 2026-04-29 16:45 | 38.07406 | 23.86268 | 39070 ft | 475 kts | 149° |
| 2026-04-29 16:46 | 38.01915 | 23.90936 | 39065 ft | 475 kts | 149° |
| 2026-04-29 16:46 | 37.96393 | 23.95621 | 39072 ft | 474 kts | 149° |
| 2026-04-29 16:47 | 37.91785 | 23.99374 | 39073 ft | 473 kts | 152° |
| 2026-04-29 16:47 | 37.85160 | 24.04205 | 39074 ft | 472 kts | 153° |
| 2026-04-29 16:48 | 37.79451 | 24.08306 | 39073 ft | 472 kts | 153° |
| 2026-04-29 16:48 | 37.74681 | 24.11772 | 39075 ft | 472 kts | 153° |
| 2026-04-29 16:49 | 37.68995 | 24.15936 | 39073 ft | 472 kts | 153° |
| 2026-04-29 16:49 | 37.63309 | 24.20098 | 39074 ft | 472 kts | 153° |
| 2026-04-29 16:50 | 37.57638 | 24.24243 | 39062 ft | 468 kts | 153° |
| 2026-04-29 16:50 | 37.54837 | 24.26289 | 38483 ft | 468 kts | 153° |
| 2026-04-29 16:50 | 37.52016 | 24.28344 | 37865 ft | 469 kts | 153° |
| 2026-04-29 16:51 | 37.49201 | 24.30396 | 37388 ft | 466 kts | 153° |
| 2026-04-29 16:51 | 37.46405 | 24.32431 | 36951 ft | 462 kts | 153° |
| 2026-04-29 16:51 | 37.43672 | 24.34419 | 36576 ft | 457 kts | 153° |
| 2026-04-29 16:51 | 37.40900 | 24.36434 | 36205 ft | 452 kts | 153° |
| 2026-04-29 16:52 | 37.38185 | 24.38405 | 35690 ft | 451 kts | 153° |
| 2026-04-29 16:52 | 37.35496 | 24.40354 | 35086 ft | 453 kts | 153° |
| 2026-04-29 16:52 | 37.32779 | 24.42321 | 34676 ft | 449 kts | 152° |
| 2026-04-29 16:52 | 37.30084 | 24.44272 | 34255 ft | 446 kts | 152° |
| 2026-04-29 16:53 | 37.27407 | 24.46208 | 33845 ft | 442 kts | 152° |
| 2026-04-29 16:53 | 37.24747 | 24.48131 | 33443 ft | 439 kts | 152° |
| 2026-04-29 16:53 | 37.22111 | 24.50034 | 33046 ft | 435 kts | 152° |
| 2026-04-29 16:53 | 37.19496 | 24.51921 | 32653 ft | 432 kts | 152° |
| 2026-04-29 16:54 | 37.16898 | 24.53794 | 32263 ft | 429 kts | 152° |
| 2026-04-29 16:54 | 37.14323 | 24.55650 | 31881 ft | 426 kts | 152° |
| 2026-04-29 16:54 | 37.11766 | 24.57491 | 31501 ft | 422 kts | 152° |
| 2026-04-29 16:54 | 37.09228 | 24.59316 | 31123 ft | 419 kts | 152° |
| 2026-04-29 16:55 | 37.06707 | 24.61128 | 30750 ft | 416 kts | 152° |
| 2026-04-29 16:55 | 37.04204 | 24.62926 | 30388 ft | 413 kts | 152° |
| 2026-04-29 16:55 | 37.01719 | 24.64709 | 30013 ft | 410 kts | 152° |
| 2026-04-29 16:55 | 36.99251 | 24.66479 | 29641 ft | 407 kts | 152° |
| 2026-04-29 16:56 | 36.96802 | 24.68234 | 29262 ft | 404 kts | 152° |
| 2026-04-29 16:56 | 36.94374 | 24.69973 | 28886 ft | 401 kts | 153° |
| 2026-04-29 16:56 | 36.91957 | 24.71703 | 28500 ft | 398 kts | 152° |
| 2026-04-29 16:56 | 36.89563 | 24.73415 | 28127 ft | 396 kts | 153° |
| 2026-04-29 16:57 | 36.87179 | 24.75119 | 27758 ft | 393 kts | 153° |
| 2026-04-29 16:57 | 36.84816 | 24.76806 | 27392 ft | 390 kts | 153° |
| 2026-04-29 16:57 | 36.82468 | 24.78480 | 27029 ft | 387 kts | 153° |
| 2026-04-29 16:57 | 36.80137 | 24.80141 | 26664 ft | 385 kts | 153° |
| 2026-04-29 16:58 | 36.77822 | 24.81790 | 26302 ft | 381 kts | 152° |
| 2026-04-29 16:58 | 36.75525 | 24.83424 | 25945 ft | 379 kts | 153° |
| 2026-04-29 16:58 | 36.73241 | 24.85048 | 25591 ft | 376 kts | 152° |
| 2026-04-29 16:58 | 36.70977 | 24.86658 | 25239 ft | 374 kts | 152° |
| 2026-04-29 16:59 | 36.68727 | 24.88257 | 24887 ft | 371 kts | 153° |
| 2026-04-29 16:59 | 36.66493 | 24.89843 | 24537 ft | 368 kts | 152° |
| 2026-04-29 16:59 | 36.64273 | 24.91418 | 24188 ft | 366 kts | 152° |
| 2026-04-29 16:59 | 36.62080 | 24.92974 | 24071 ft | 358 kts | 152° |
| 2026-04-29 17:00 | 36.59941 | 24.94491 | 24047 ft | 349 kts | 152° |
| 2026-04-29 17:00 | 36.57860 | 24.95966 | 24034 ft | 340 kts | 153° |
| 2026-04-29 17:00 | 36.55833 | 24.97401 | 23897 ft | 332 kts | 153° |
| 2026-04-29 17:00 | 36.53831 | 24.98817 | 23591 ft | 331 kts | 153° |
| 2026-04-29 17:01 | 36.51810 | 25.00242 | 22884 ft | 341 kts | 153° |
| 2026-04-29 17:01 | 36.49711 | 25.01719 | 21964 ft | 359 kts | 153° |
| 2026-04-29 17:01 | 36.47539 | 25.03250 | 21575 ft | 358 kts | 152° |
| 2026-04-29 17:01 | 36.45373 | 25.04778 | 21187 ft | 357 kts | 152° |
| 2026-04-29 17:02 | 36.43223 | 25.06292 | 20830 ft | 354 kts | 152° |
| 2026-04-29 17:02 | 36.41086 | 25.07797 | 20478 ft | 352 kts | 152° |
| 2026-04-29 17:02 | 36.38962 | 25.09295 | 20125 ft | 350 kts | 152° |
| 2026-04-29 17:02 | 36.36852 | 25.10782 | 19789 ft | 347 kts | 152° |
| 2026-04-29 17:03 | 36.34731 | 25.12275 | 19447 ft | 345 kts | 152° |
| 2026-04-29 17:03 | 36.32680 | 25.13717 | 19114 ft | 342 kts | 152° |
| 2026-04-29 17:03 | 36.30615 | 25.15168 | 18779 ft | 340 kts | 152° |
| 2026-04-29 17:03 | 36.28563 | 25.16609 | 18440 ft | 338 kts | 152° |
| 2026-04-29 17:04 | 36.26499 | 25.18057 | 18102 ft | 335 kts | 152° |
| 2026-04-29 17:04 | 36.24503 | 25.19455 | 17765 ft | 333 kts | 152° |
| 2026-04-29 17:04 | 36.22493 | 25.20864 | 17436 ft | 331 kts | 152° |
| 2026-04-29 17:04 | 36.20467 | 25.22283 | 17096 ft | 329 kts | 152° |
| 2026-04-29 17:05 | 36.18478 | 25.23675 | 16763 ft | 327 kts | 152° |
| 2026-04-29 17:05 | 36.16502 | 25.25057 | 16431 ft | 325 kts | 152° |
| 2026-04-29 17:05 | 36.14530 | 25.26436 | 16051 ft | 326 kts | 152° |
| 2026-04-29 17:05 | 36.12590 | 25.27791 | 15717 ft | 324 kts | 152° |
| 2026-04-29 17:06 | 36.10631 | 25.29159 | 15380 ft | 322 kts | 152° |
| 2026-04-29 17:06 | 36.08687 | 25.30516 | 15051 ft | 320 kts | 152° |
| 2026-04-29 17:06 | 36.06751 | 25.31865 | 14720 ft | 319 kts | 152° |
| 2026-04-29 17:06 | 36.04824 | 25.33209 | 14391 ft | 317 kts | 152° |
| 2026-04-29 17:07 | 36.02911 | 25.34541 | 14065 ft | 315 kts | 152° |
| 2026-04-29 17:07 | 36.01010 | 25.35864 | 13741 ft | 313 kts | 152° |
| 2026-04-29 17:07 | 35.99113 | 25.37182 | 13418 ft | 312 kts | 151° |
| 2026-04-29 17:07 | 35.97228 | 25.38494 | 13089 ft | 310 kts | 151° |
| 2026-04-29 17:08 | 35.95348 | 25.39800 | 12772 ft | 309 kts | 151° |
| 2026-04-29 17:08 | 35.93478 | 25.41099 | 12454 ft | 308 kts | 151° |
| 2026-04-29 17:08 | 35.91613 | 25.42394 | 12132 ft | 307 kts | 151° |
| 2026-04-29 17:08 | 35.89760 | 25.43681 | 11811 ft | 305 kts | 151° |
| 2026-04-29 17:09 | 35.87913 | 25.44963 | 11491 ft | 304 kts | 151° |
| 2026-04-29 17:09 | 35.86072 | 25.46239 | 11170 ft | 303 kts | 151° |
| 2026-04-29 17:09 | 35.84239 | 25.47508 | 10851 ft | 302 kts | 151° |
| 2026-04-29 17:09 | 35.82415 | 25.48771 | 10528 ft | 301 kts | 151° |
| 2026-04-29 17:10 | 35.80596 | 25.50032 | 10206 ft | 299 kts | 150° |
| 2026-04-29 17:10 | 35.78783 | 25.51286 | 9887 ft | 298 kts | 150° |
| 2026-04-29 17:10 | 35.76975 | 25.52536 | 9574 ft | 298 kts | 151° |
| 2026-04-29 17:10 | 35.75157 | 25.53760 | 9186 ft | 299 kts | 152° |
| 2026-04-29 17:11 | 35.73313 | 25.54981 | 8773 ft | 302 kts | 152° |
| 2026-04-29 17:11 | 35.71465 | 25.56196 | 8464 ft | 300 kts | 152° |
| 2026-04-29 17:11 | 35.69629 | 25.57401 | 8184 ft | 298 kts | 152° |
| 2026-04-29 17:11 | 35.67805 | 25.58596 | 7876 ft | 297 kts | 152° |
| 2026-04-29 17:12 | 35.65982 | 25.59778 | 7576 ft | 295 kts | 155° |
| 2026-04-29 17:12 | 35.64008 | 25.60379 | 7232 ft | 293 kts | 181° |
| 2026-04-29 17:12 | 35.62044 | 25.59872 | 6903 ft | 288 kts | 207° |
| 2026-04-29 17:12 | 35.60881 | 25.59103 | 6716 ft | 285 kts | 213° |
| 2026-04-29 17:13 | 35.58632 | 25.57390 | 6295 ft | 284 kts | 214° |
| 2026-04-29 17:13 | 35.57015 | 25.56012 | 5974 ft | 281 kts | 224° |
| 2026-04-29 17:13 | 35.55674 | 25.54288 | 5667 ft | 278 kts | 232° |
| 2026-04-29 17:13 | 35.54430 | 25.52490 | 5353 ft | 274 kts | 232° |
| 2026-04-29 17:14 | 35.53207 | 25.50706 | 4844 ft | 273 kts | 232° |
| 2026-04-29 17:14 | 35.51976 | 25.48931 | 4327 ft | 273 kts | 232° |
| 2026-04-29 17:14 | 35.50739 | 25.47170 | 3868 ft | 271 kts | 232° |
| 2026-04-29 17:14 | 35.49496 | 25.45419 | 3513 ft | 272 kts | 231° |
| 2026-04-29 17:15 | 35.48263 | 25.43690 | 3295 ft | 267 kts | 232° |
| 2026-04-29 17:15 | 35.47055 | 25.42002 | 3155 ft | 259 kts | 231° |
| 2026-04-29 17:15 | 35.45682 | 25.40609 | 3007 ft | 258 kts | 205° |
| 2026-04-29 17:15 | 35.43961 | 25.40260 | 2991 ft | 249 kts | 175° |
| 2026-04-29 17:16 | 35.42345 | 25.40834 | 2995 ft | 236 kts | 154° |
| 2026-04-29 17:16 | 35.40972 | 25.41739 | 2988 ft | 219 kts | 150° |
| 2026-04-29 17:16 | 35.39683 | 25.42642 | 2980 ft | 212 kts | 150° |
| 2026-04-29 17:16 | 35.38403 | 25.43543 | 2983 ft | 212 kts | 150° |
| 2026-04-29 17:17 | 35.37018 | 25.44007 | 2969 ft | 206 kts | 192° |
| 2026-04-29 17:17 | 35.35802 | 25.43218 | 2930 ft | 200 kts | 229° |
| 2026-04-29 17:17 | 35.34997 | 25.41843 | 2797 ft | 199 kts | 248° |
| 2026-04-29 17:17 | 35.34423 | 25.40316 | 2669 ft | 196 kts | 249° |
| 2026-04-29 17:18 | 35.33857 | 25.38816 | 2529 ft | 191 kts | 248° |
| 2026-04-29 17:18 | 35.33302 | 25.37358 | 2427 ft | 186 kts | 248° |
| 2026-04-29 17:18 | 35.32834 | 25.35908 | 2302 ft | 182 kts | 264° |
| 2026-04-29 17:18 | 35.32892 | 25.34392 | 2233 ft | 176 kts | 274° |
| 2026-04-29 17:19 | 35.32976 | 25.32929 | 2134 ft | 167 kts | 272° |
| 2026-04-29 17:19 | 35.33060 | 25.31498 | 2085 ft | 171 kts | 272° |
| 2026-04-29 17:19 | 35.33151 | 25.30063 | 2009 ft | 166 kts | 273° |
| 2026-04-29 17:19 | 35.33244 | 25.28682 | 1887 ft | 157 kts | 273° |
| 2026-04-29 17:20 | 35.33333 | 25.27378 | 1623 ft | 148 kts | 274° |
| 2026-04-29 17:20 | 35.33422 | 25.26091 | 1429 ft | 156 kts | 274° |
| 2026-04-29 17:20 | 35.33510 | 25.24792 | 1141 ft | 152 kts | 275° |
| 2026-04-29 17:20 | 35.33606 | 25.23520 | 840 ft | 150 kts | 274° |
| 2026-04-29 17:21 | 35.33683 | 25.22242 | 630 ft | 150 kts | 274° |
| 2026-04-29 17:21 | 35.33760 | 25.20978 | 409 ft | 148 kts | 275° |
| 2026-04-29 17:21 | 35.33852 | 25.19732 | 236 ft | 146 kts | 275° |
| 2026-04-29 17:21 | 35.33943 | 25.18504 | 97 ft | 141 kts | 275° |
| 2026-04-29 17:22 | 35.34011 | 25.17513 | 90 ft | 86 kts | 275° |
| 2026-04-29 17:22 | 35.34045 | 25.17023 | 89 ft | 38 kts | 275° |
| 2026-04-29 17:22 | 35.34034 | 25.16853 | 91 ft | 10 kts | 201° |
| 2026-04-29 17:22 | 35.33994 | 25.16899 | 89 ft | 8 kts | 124° |
| 2026-04-29 17:23 | 35.33960 | 25.16961 | 89 ft | 9 kts | 118° |
| 2026-04-29 17:23 | 35.33944 | 25.17042 | 90 ft | 11 kts | 98° |
| 2026-04-29 17:23 | 35.33937 | 25.17159 | 89 ft | 16 kts | 94° |
| 2026-04-29 17:23 | 35.33928 | 25.17290 | 90 ft | 15 kts | 94° |
| 2026-04-29 17:24 | 35.33919 | 25.17402 | 90 ft | 13 kts | 96° |
| 2026-04-29 17:24 | 35.33912 | 25.17510 | 93 ft | 13 kts | 94° |
| 2026-04-29 17:24 | 35.33905 | 25.17615 | 90 ft | 12 kts | 94° |
| 2026-04-29 17:24 | 35.33897 | 25.17717 | 92 ft | 12 kts | 107° |
| 2026-04-29 17:25 | 35.33836 | 25.17740 | 92 ft | 9 kts | 188° |
| 2026-04-29 17:25 | 35.33811 | 25.17709 | 94 ft | 4 kts | 253° |
| 2026-04-29 17:25 | 35.33812 | 25.17676 | 90 ft | 4 kts | 275° |
| 2026-04-29 17:25 | 35.33812 | 25.17668 | 90 ft | 0 kts | 275° |